Elmora, New Jersey
Current Conditions -  °F | °C
As of 4:15 PM on Thursday 27 Nov 2014 (Local Time) from KLDJ Reporting Station
Overcast Overcast  
Wind Chill:   Ceiling: 2600
Heat Index:   Visibility: 10mi
Dew Point:   Wind: 7mph
Humidity: 76%   Direction: 320°NW
Pressure: 30.02"   Gusts: NA
Location:  40.6531°N, 74.2169°W
Report Text: KLDJ 272115Z AUTO 32006KT 10SM OVC026 05/01 A3002 RMK AO2 T00500011
Loading
Personal Weather Stations






























Interactive Weather Map New forecast layout! Learn more

10-Day Weather Forecast

Advertisements
Track Severe Weather on mobile